Courtland, Alabama
Current Conditions -  °F | °C
As of 4:53 AM on Friday 19 Dec 2014 (Local Time) from KMSL Reporting Station
Overcast Overcast  
Wind Chill: 40°   Ceiling: 3500
Heat Index: 40°   Visibility: 9mi
Dew Point: 33°   Wind: 3mph
Humidity: 77%   Direction: 80°E
Pressure: 30.21"   Gusts: NA
Location:  34.67°N, 87.31°W
Report Text: KMSL 191053Z AUTO 08003KT 9SM OVC035 04/01 A3021 RMK AO2 SLP233 T00440006
Loading
Personal Weather Stations






























Interactive Weather Map New forecast layout! Learn more

10-Day Weather Forecast

Advertisements
Track Severe Weather on mobile